Time;durP1;ratioP1;P1;durP2;ratioP2;P2;SDS_P1;SDS_P2;PMS_P1;PMS_P2;Temp;Humidity;BMP_temperature;BMP_pressure;BME280_temperature;BME280_humidity;BME280_pressure;Samples;Min_cycle;Max_cycle;Signal;HPM_P1;HPM_P2
2023/06/23 00:01:17;;;;;;;27.92;18.90;;;19.90;99.90;;;;;;5024587;28;20025;-68
2023/06/23 00:03:45;;;;;;;27.40;19.85;;;19.80;99.90;;;;;;5021113;28;20549;-69
2023/06/23 00:06:11;;;;;;;19.75;17.30;;;19.80;99.90;;;;;;5025463;28;20377;-70
2023/06/23 00:08:39;;;;;;;24.65;19.83;;;19.80;99.90;;;;;;5023146;28;20060;-68
2023/06/23 00:11:06;;;;;;;24.45;19.92;;;19.80;99.90;;;;;;5027111;28;20051;-68
2023/06/23 00:13:34;;;;;;;27.38;19.33;;;19.80;99.90;;;;;;5020142;28;20022;-69
2023/06/23 00:16:04;;;;;;;31.77;20.40;;;19.80;99.90;;;;;;5024626;28;20021;-71
2023/06/23 00:18:35;;;;;;;22.60;17.75;;;19.80;99.90;;;;;;5024043;28;20503;-68
2023/06/23 00:21:03;;;;;;;23.15;18.10;;;19.70;99.90;;;;;;5024366;28;20496;-67
2023/06/23 00:23:30;;;;;;;27.38;18.65;;;19.70;99.90;;;;;;5021500;28;20077;-68
2023/06/23 00:25:57;;;;;;;24.23;18.35;;;19.70;99.90;;;;;;5024276;28;20028;-68
2023/06/23 00:28:22;;;;;;;23.40;18.40;;;19.60;99.90;;;;;;5025923;28;20033;-69
2023/06/23 00:30:49;;;;;;;25.92;17.60;;;19.60;99.90;;;;;;5028961;28;20416;-68
2023/06/23 00:33:15;;;;;;;23.33;18.10;;;19.60;99.90;;;;;;5026053;28;20036;-68
2023/06/23 00:35:41;;;;;;;20.30;17.27;;;19.60;99.90;;;;;;5024880;28;20143;-68
2023/06/23 00:38:07;;;;;;;26.98;18.30;;;19.60;99.90;;;;;;5025579;28;20057;-68
2023/06/23 00:40:34;;;;;;;21.30;16.80;;;19.60;99.90;;;;;;5022447;28;20408;-68
2023/06/23 00:43:00;;;;;;;25.92;17.27;;;19.60;99.90;;;;;;5027981;28;20032;-69
2023/06/23 00:45:26;;;;;;;22.40;16.55;;;19.60;99.90;;;;;;5024879;28;20036;-68
2023/06/23 00:47:52;;;;;;;25.52;17.83;;;19.50;99.90;;;;;;5025836;28;20034;-68
2023/06/23 00:50:20;;;;;;;24.70;16.85;;;19.50;99.90;;;;;;5024028;28;20027;-68
2023/06/23 00:52:51;;;;;;;27.13;19.23;;;19.50;99.90;;;;;;5022612;28;20078;-68
2023/06/23 00:55:21;;;;;;;23.52;19.13;;;19.50;99.90;;;;;;5023268;28;20033;-69
2023/06/23 00:57:48;;;;;;;30.13;18.27;;;19.50;99.90;;;;;;5024082;28;20060;-68
2023/06/23 01:00:18;;;;;;;25.77;18.98;;;19.40;99.90;;;;;;5027258;28;20071;-69
2023/06/23 01:02:46;;;;;;;27.08;18.17;;;19.40;99.90;;;;;;5017661;28;20049;-70
2023/06/23 01:05:12;;;;;;;26.75;20.50;;;19.40;99.90;;;;;;5026306;28;20032;-68
2023/06/23 01:08:03;;;;;;;27.33;19.85;;;19.40;99.90;;;;;;5018300;28;20042;-68
2023/06/23 01:10:32;;;;;;;21.90;17.73;;;19.30;99.90;;;;;;5016794;28;20045;-70
2023/06/23 01:13:35;;;;;;;22.45;18.52;;;19.30;99.90;;;;;;5020050;28;20033;-68
2023/06/23 01:16:28;;;;;;;24.77;18.13;;;19.30;99.90;;;;;;5025181;28;20531;-69
2023/06/23 01:19:21;;;;;;;23.38;17.63;;;19.30;99.90;;;;;;5018872;28;20075;-68
2023/06/23 01:22:08;;;;;;;25.80;18.52;;;19.20;99.90;;;;;;5022552;28;20049;-69
2023/06/23 01:25:24;;;;;;;23.73;17.15;;;19.20;99.90;;;;;;5027865;28;20130;-70
2023/06/23 01:27:58;;;;;;;24.00;17.75;;;19.10;99.90;;;;;;5003042;28;20492;-71
2023/06/23 01:30:26;;;;;;;24.50;18.38;;;19.20;99.90;;;;;;5020283;28;20018;-67
2023/06/23 01:32:58;;;;;;;29.08;20.75;;;19.10;99.90;;;;;;5026202;28;20117;-68
2023/06/23 01:35:29;;;;;;;25.70;19.27;;;19.10;99.90;;;;;;5017509;28;20029;-68
2023/06/23 01:38:10;;;;;;;25.63;20.13;;;19.10;99.90;;;;;;5017059;28;20030;-68
2023/06/23 01:40:39;;;;;;;31.05;21.33;;;19.10;99.90;;;;;;5014941;28;20033;-67
2023/06/23 01:43:06;;;;;;;29.42;20.58;;;19.10;99.90;;;;;;5024639;28;20062;-68
2023/06/23 01:45:33;;;;;;;29.27;21.80;;;19.10;99.90;;;;;;5026185;28;20491;-69
2023/06/23 01:48:02;;;;;;;27.48;20.27;;;19.10;99.90;;;;;;5016908;28;20033;-68
2023/06/23 01:50:31;;;;;;;28.77;22.15;;;19.00;99.90;;;;;;5020462;28;20410;-68
2023/06/23 01:53:00;;;;;;;32.05;22.20;;;19.00;99.90;;;;;;5027207;28;20377;-68
2023/06/23 01:55:27;;;;;;;34.90;24.75;;;19.00;99.90;;;;;;5023762;28;20017;-68
2023/06/23 01:57:55;;;;;;;30.52;23.25;;;19.00;99.90;;;;;;5017053;28;20029;-67
2023/06/23 02:00:22;;;;;;;34.80;25.05;;;19.00;99.90;;;;;;5020182;28;20145;-69
2023/06/23 02:02:51;;;;;;;31.10;23.50;;;19.00;99.90;;;;;;5021205;28;20036;-70
2023/06/23 02:05:20;;;;;;;33.85;24.70;;;19.00;99.90;;;;;;5021470;28;20033;-70
2023/06/23 02:07:50;;;;;;;27.98;22.95;;;19.00;99.90;;;;;;5019740;28;20485;-68
2023/06/23 02:10:17;;;;;;;37.92;26.35;;;19.00;99.90;;;;;;5026764;28;20385;-69
2023/06/23 02:12:45;;;;;;;36.72;25.50;;;19.00;99.90;;;;;;5023787;28;20575;-68
2023/06/23 02:15:14;;;;;;;32.50;24.63;;;19.00;99.90;;;;;;5019266;28;20043;-68
2023/06/23 02:17:41;;;;;;;40.83;27.52;;;18.90;99.90;;;;;;5019860;28;20026;-68
2023/06/23 02:20:15;;;;;;;35.45;24.92;;;18.90;99.90;;;;;;5020463;28;20030;-68
2023/06/23 02:22:45;;;;;;;35.25;26.75;;;18.90;99.90;;;;;;5020378;28;20017;-69
2023/06/23 02:25:12;;;;;;;38.00;24.92;;;18.90;99.90;;;;;;5020246;28;20063;-69
2023/06/23 02:27:40;;;;;;;38.65;25.95;;;18.90;99.90;;;;;;5020926;28;20117;-68
2023/06/23 02:30:07;;;;;;;36.00;25.02;;;18.90;99.90;;;;;;5019331;28;20034;-69
2023/06/23 02:32:33;;;;;;;36.83;25.48;;;18.90;99.90;;;;;;5019526;28;20742;-67
2023/06/23 02:34:58;;;;;;;37.97;26.73;;;18.80;99.90;;;;;;5018764;28;20029;-68
2023/06/23 02:37:26;;;;;;;35.88;24.85;;;18.80;99.90;;;;;;5022055;28;20026;-69
2023/06/23 02:39:56;;;;;;;36.40;26.02;;;18.90;99.90;;;;;;5026627;28;20022;-68
2023/06/23 02:42:30;;;;;;;38.83;26.52;;;18.90;99.90;;;;;;5022449;28;20033;-68
2023/06/23 02:45:03;;;;;;;36.65;25.55;;;18.80;99.90;;;;;;5019524;28;20433;-68
2023/06/23 02:47:34;;;;;;;40.67;27.30;;;18.80;99.90;;;;;;5020740;28;20098;-68
2023/06/23 02:50:03;;;;;;;39.05;26.90;;;18.70;99.90;;;;;;5019439;28;20104;-67
2023/06/23 02:52:34;;;;;;;37.30;27.40;;;18.70;99.90;;;;;;5021357;28;20512;-67
2023/06/23 02:55:03;;;;;;;35.67;25.83;;;18.70;99.90;;;;;;5018383;28;20026;-67
2023/06/23 02:57:31;;;;;;;40.88;26.13;;;18.70;99.90;;;;;;5017818;28;20367;-68
2023/06/23 02:59:59;;;;;;;35.97;27.05;;;18.70;99.90;;;;;;5020317;28;20033;-68
2023/06/23 03:02:25;;;;;;;36.80;26.38;;;18.70;99.90;;;;;;5017042;28;20025;-67
2023/06/23 03:04:51;;;;;;;40.88;27.92;;;18.70;99.90;;;;;;5020743;28;20029;-69
2023/06/23 03:07:17;;;;;;;42.20;27.45;;;18.70;99.90;;;;;;5017296;28;20032;-69
2023/06/23 03:09:44;;;;;;;44.25;29.63;;;18.60;99.90;;;;;;5019770;28;20030;-67
2023/06/23 03:12:10;;;;;;;40.70;30.85;;;18.60;99.90;;;;;;5021119;28;20030;-69
2023/06/23 03:14:37;;;;;;;35.08;26.65;;;18.60;99.90;;;;;;5018418;28;20025;-70
2023/06/23 03:17:14;;;;;;;41.08;29.05;;;18.60;99.90;;;;;;5020459;28;20026;-68
2023/06/23 03:19:42;;;;;;;40.25;29.45;;;18.50;99.90;;;;;;5018905;28;20148;-70
2023/06/23 03:22:12;;;;;;;45.22;30.02;;;18.60;99.90;;;;;;5019646;28;20022;-69
2023/06/23 03:24:40;;;;;;;45.67;28.83;;;18.60;99.90;;;;;;5019099;28;20500;-69
2023/06/23 03:27:08;;;;;;;40.67;28.55;;;18.60;99.90;;;;;;5018927;28;20018;-69
2023/06/23 03:29:40;;;;;;;39.05;28.55;;;18.50;99.90;;;;;;5019722;28;20038;-69
2023/06/23 03:32:08;;;;;;;38.17;27.70;;;18.50;99.90;;;;;;5022514;28;20030;-68
2023/06/23 03:34:41;;;;;;;40.08;29.30;;;18.60;99.90;;;;;;5019853;28;20032;-71
2023/06/23 03:37:11;;;;;;;39.85;29.17;;;18.50;99.90;;;;;;5017170;28;20486;-68
2023/06/23 03:39:40;;;;;;;41.70;29.75;;;18.50;99.90;;;;;;5013344;28;20030;-71
2023/06/23 03:42:07;;;;;;;40.45;27.95;;;18.50;99.90;;;;;;5027002;28;20021;-69
2023/06/23 03:44:47;;;;;;;38.35;27.83;;;18.50;99.90;;;;;;5018028;28;20546;-72
2023/06/23 03:47:23;;;;;;;39.38;27.77;;;18.40;99.90;;;;;;5012683;28;20032;-68
2023/06/23 03:49:54;;;;;;;39.63;27.42;;;18.50;99.90;;;;;;5018075;28;20064;-69
2023/06/23 03:52:22;;;;;;;41.35;28.90;;;18.50;99.90;;;;;;5019289;28;20423;-68
2023/06/23 03:54:52;;;;;;;37.40;28.30;;;18.50;99.90;;;;;;5018640;28;20377;-69
2023/06/23 03:57:20;;;;;;;40.08;29.77;;;18.50;99.90;;;;;;5014175;28;20034;-70
2023/06/23 03:59:48;;;;;;;36.80;27.70;;;18.50;99.90;;;;;;5023391;28;20037;-69
2023/06/23 04:02:17;;;;;;;42.13;30.05;;;18.50;99.90;;;;;;5018272;28;20025;-68
2023/06/23 04:04:44;;;;;;;42.72;29.80;;;18.50;99.90;;;;;;5013148;28;20525;-68
2023/06/23 04:07:11;;;;;;;43.30;31.92;;;18.50;99.90;;;;;;5016718;28;20094;-68
2023/06/23 04:09:40;;;;;;;44.22;29.80;;;18.50;99.90;;;;;;5023050;28;20548;-69
2023/06/23 04:12:10;;;;;;;39.88;29.67;;;18.50;99.90;;;;;;5017683;28;20051;-69
2023/06/23 04:14:38;;;;;;;39.00;29.35;;;18.50;99.90;;;;;;5022664;28;20030;-69
2023/06/23 04:17:06;;;;;;;42.03;29.85;;;18.50;99.90;;;;;;5015989;28;20033;-68
2023/06/23 04:19:34;;;;;;;41.83;28.50;;;18.50;99.90;;;;;;5017715;28;20033;-69
2023/06/23 04:22:02;;;;;;;45.60;31.42;;;18.50;99.90;;;;;;5017498;28;20061;-69
2023/06/23 04:24:30;;;;;;;42.00;30.38;;;18.50;99.90;;;;;;5014281;28;20034;-68
2023/06/23 04:26:57;;;;;;;40.58;29.15;;;18.50;99.90;;;;;;5019411;28;20049;-68
2023/06/23 04:29:25;;;;;;;36.72;30.15;;;18.50;99.90;;;;;;5022215;28;20366;-71
2023/06/23 04:31:54;;;;;;;39.53;29.15;;;18.50;99.90;;;;;;5022342;28;20026;-68
2023/06/23 04:34:20;;;;;;;41.63;30.52;;;18.50;99.90;;;;;;5020479;28;20041;-67
2023/06/23 04:36:53;;;;;;;44.17;32.42;;;18.50;99.90;;;;;;5025946;28;20551;-70
2023/06/23 04:39:27;;;;;;;41.53;29.95;;;18.40;99.90;;;;;;5017985;28;20041;-70
2023/06/23 04:42:01;;;;;;;40.65;31.70;;;18.50;99.90;;;;;;5018314;28;20026;-69
2023/06/23 04:44:29;;;;;;;43.33;33.17;;;18.50;99.90;;;;;;5017614;28;20513;-69
2023/06/23 04:47:01;;;;;;;43.70;32.70;;;18.40;99.90;;;;;;5017988;28;20037;-68
2023/06/23 04:49:29;;;;;;;37.95;31.10;;;18.50;99.90;;;;;;5026676;28;20060;-70
2023/06/23 04:51:58;;;;;;;36.38;28.63;;;18.50;99.90;;;;;;5018325;28;20039;-70
2023/06/23 04:54:38;;;;;;;34.92;26.42;;;18.50;99.90;;;;;;5015491;28;20026;-69
2023/06/23 04:57:08;;;;;;;48.72;33.95;;;18.50;99.90;;;;;;5023981;28;20032;-72
2023/06/23 04:59:37;;;;;;;45.30;32.10;;;18.50;99.90;;;;;;5017592;28;20063;-71
2023/06/23 05:02:04;;;;;;;42.22;29.05;;;18.50;99.90;;;;;;5020119;28;20022;-73
2023/06/23 05:04:33;;;;;;;44.15;32.47;;;18.50;99.90;;;;;;5021940;28;20029;-71
2023/06/23 05:07:01;;;;;;;44.97;33.90;;;18.50;99.90;;;;;;5025057;28;20217;-72
2023/06/23 05:09:27;;;;;;;42.35;32.17;;;18.50;99.90;;;;;;5016584;28;20045;-73
2023/06/23 05:11:55;;;;;;;44.60;32.58;;;18.60;99.90;;;;;;5019860;28;20584;-70
2023/06/23 05:14:22;;;;;;;50.10;35.25;;;18.60;99.90;;;;;;5023186;28;20052;-69
2023/06/23 05:16:48;;;;;;;48.28;34.05;;;18.60;99.90;;;;;;5022016;28;20010;-70
2023/06/23 05:19:16;;;;;;;47.33;35.13;;;18.60;99.90;;;;;;5018756;28;20030;-68
2023/06/23 05:21:43;;;;;;;50.53;36.97;;;18.60;99.90;;;;;;5017842;28;20026;-67
2023/06/23 05:24:11;;;;;;;50.78;35.67;;;18.60;99.90;;;;;;5025711;28;20145;-72
2023/06/23 05:26:38;;;;;;;51.45;37.97;;;18.60;99.90;;;;;;5027357;28;20049;-70
2023/06/23 05:29:07;;;;;;;51.67;36.22;;;18.60;99.90;;;;;;5015129;28;20473;-69
2023/06/23 05:31:41;;;;;;;48.00;36.55;;;18.60;99.90;;;;;;5018576;28;20030;-71
2023/06/23 05:34:11;;;;;;;56.20;40.17;;;18.60;99.90;;;;;;5013202;28;20139;-68
2023/06/23 05:36:38;;;;;;;58.00;37.92;;;18.70;99.90;;;;;;5019125;28;20030;-69
2023/06/23 05:39:05;;;;;;;69.50;44.40;;;18.70;99.90;;;;;;5024123;28;20494;-70
2023/06/23 05:41:32;;;;;;;59.33;40.33;;;18.70;99.90;;;;;;5013332;28;20030;-70
2023/06/23 05:44:09;;;;;;;54.70;38.47;;;18.70;99.90;;;;;;5014979;28;20026;-71
2023/06/23 05:46:39;;;;;;;56.47;38.72;;;18.80;99.90;;;;;;5018990;28;20090;-69
2023/06/23 05:49:13;;;;;;;56.58;40.13;;;18.80;99.90;;;;;;5019810;28;20563;-71
2023/06/23 05:51:40;;;;;;;54.83;38.20;;;18.80;99.90;;;;;;5019967;28;20034;-68
2023/06/23 05:54:10;;;;;;;59.15;39.83;;;18.80;99.90;;;;;;5024011;28;20030;-69
2023/06/23 05:56:39;;;;;;;59.28;38.95;;;18.80;99.90;;;;;;5021055;28;20037;-70
2023/06/23 05:59:15;;;;;;;55.00;39.22;;;18.90;99.90;;;;;;5017987;28;20090;-69
2023/06/23 06:01:43;;;;;;;55.85;37.97;;;18.90;99.90;;;;;;5022166;28;20074;-68
2023/06/23 06:04:17;;;;;;;56.75;38.03;;;18.90;99.90;;;;;;5018398;28;20158;-68
2023/06/23 06:06:46;;;;;;;60.40;42.22;;;18.90;99.90;;;;;;5016644;28;20108;-68
2023/06/23 06:09:13;;;;;;;63.58;44.97;;;18.90;99.90;;;;;;5018675;28;20057;-69
2023/06/23 06:11:42;;;;;;;59.67;43.35;;;19.00;99.90;;;;;;5022510;28;20022;-69
2023/06/23 06:14:09;;;;;;;63.50;40.40;;;19.10;99.90;;;;;;5021509;28;20022;-70
2023/06/23 06:16:37;;;;;;;55.97;39.78;;;19.00;99.90;;;;;;5022687;28;20385;-71
2023/06/23 06:19:04;;;;;;;59.67;39.55;;;19.00;99.90;;;;;;5022965;28;20617;-71
2023/06/23 06:21:32;;;;;;;52.03;38.70;;;19.10;99.90;;;;;;5020090;28;20026;-71
2023/06/23 06:24:00;;;;;;;51.30;37.22;;;19.10;99.90;;;;;;5020988;28;20047;-71
2023/06/23 06:26:26;;;;;;;58.42;40.42;;;19.10;99.90;;;;;;5024888;28;20026;-71
2023/06/23 06:28:57;;;;;;;61.72;40.80;;;19.20;99.90;;;;;;5017389;28;20034;-70
2023/06/23 06:31:23;;;;;;;55.22;41.00;;;19.20;99.90;;;;;;5019766;28;20112;-71
2023/06/23 06:33:52;;;;;;;57.40;39.47;;;19.20;99.90;;;;;;5018858;28;20098;-72
2023/06/23 06:36:20;;;;;;;61.50;41.70;;;19.30;99.90;;;;;;5019676;28;20026;-71
2023/06/23 06:38:48;;;;;;;64.13;42.63;;;19.30;99.90;;;;;;5018615;28;20038;-71
2023/06/23 06:41:14;;;;;;;50.53;38.53;;;19.40;99.90;;;;;;5021531;28;20030;-70
2023/06/23 06:43:40;;;;;;;54.38;39.10;;;19.50;99.90;;;;;;5017389;28;20030;-71
2023/06/23 06:46:06;;;;;;;50.25;34.17;;;19.50;99.90;;;;;;5023756;28;20030;-72
2023/06/23 06:48:33;;;;;;;53.08;39.45;;;19.60;99.90;;;;;;5020031;28;20132;-71
2023/06/23 06:51:01;;;;;;;51.03;37.97;;;19.70;99.90;;;;;;5015996;28;20030;-71
2023/06/23 06:53:27;;;;;;;46.35;33.45;;;19.80;99.90;;;;;;5015596;28;20129;-71
2023/06/23 06:55:54;;;;;;;52.28;37.83;;;20.00;99.90;;;;;;5018765;28;20488;-72
2023/06/23 06:58:20;;;;;;;53.40;35.58;;;20.10;99.90;;;;;;5020432;28;20433;-72
2023/06/23 07:00:46;;;;;;;46.35;34.00;;;20.10;99.90;;;;;;5028420;28;20086;-72
2023/06/23 07:03:16;;;;;;;50.72;34.13;;;20.30;99.90;;;;;;5021018;28;20025;-72
2023/06/23 07:05:41;;;;;;;43.85;32.25;;;20.50;99.90;;;;;;5020942;28;20760;-71
2023/06/23 07:08:08;;;;;;;45.22;32.88;;;20.60;99.90;;;;;;5019847;28;20038;-72
2023/06/23 07:10:35;;;;;;;45.88;33.10;;;20.80;99.90;;;;;;5021359;28;20022;-72
2023/06/23 07:13:01;;;;;;;44.70;31.98;;;21.00;99.90;;;;;;5016918;28;20032;-71
2023/06/23 07:15:27;;;;;;;46.60;33.40;;;21.10;99.90;;;;;;5024269;28;20169;-71
2023/06/23 07:17:53;;;;;;;42.75;31.10;;;21.10;99.90;;;;;;5016176;28;20541;-72
2023/06/23 07:20:19;;;;;;;46.88;32.15;;;21.20;99.90;;;;;;5022478;28;20021;-71
2023/06/23 07:22:45;;;;;;;46.75;31.67;;;21.40;99.90;;;;;;5017998;28;20037;-71
2023/06/23 07:25:11;;;;;;;39.10;29.42;;;21.50;99.90;;;;;;5021904;28;20022;-70
2023/06/23 07:27:37;;;;;;;39.35;28.00;;;21.60;99.90;;;;;;5027139;28;20036;-72
2023/06/23 07:30:04;;;;;;;42.50;30.25;;;21.70;99.90;;;;;;5020091;28;20029;-71
2023/06/23 07:32:30;;;;;;;36.47;27.38;;;21.70;99.90;;;;;;5025470;28;20177;-71
2023/06/23 07:34:55;;;;;;;39.25;27.90;;;22.00;99.90;;;;;;5021918;28;20034;-70
2023/06/23 07:37:21;;;;;;;35.17;25.65;;;22.10;99.90;;;;;;5024843;28;20046;-69
2023/06/23 07:39:46;;;;;;;36.97;25.92;;;22.10;99.90;;;;;;5022578;28;20355;-69
2023/06/23 07:42:12;;;;;;;34.45;23.75;;;22.20;99.90;;;;;;5015952;28;20519;-69
2023/06/23 07:44:38;;;;;;;33.00;24.15;;;22.30;99.90;;;;;;5022646;28;20025;-69
2023/06/23 07:47:04;;;;;;;34.15;26.20;;;22.30;99.90;;;;;;5017502;28;20113;-68
2023/06/23 07:49:30;;;;;;;34.75;26.40;;;22.50;99.90;;;;;;5020873;28;20036;-69
2023/06/23 07:52:00;;;;;;;35.53;24.88;;;22.50;99.90;;;;;;5025423;28;20026;-71
2023/06/23 07:54:29;;;;;;;32.58;24.98;;;22.60;99.90;;;;;;5017472;28;20032;-69
2023/06/23 07:56:56;;;;;;;33.92;23.10;;;22.70;99.90;;;;;;5015186;28;20110;-70
2023/06/23 07:59:22;;;;;;;35.78;25.80;;;22.70;99.90;;;;;;5015401;28;20490;-69
2023/06/23 08:01:48;;;;;;;34.10;24.40;;;22.80;99.90;;;;;;5018790;28;20100;-68
2023/06/23 08:04:14;;;;;;;29.95;22.98;;;22.90;99.90;;;;;;5016974;28;20027;-69
2023/06/23 08:06:39;;;;;;;36.95;25.20;;;22.90;99.90;;;;;;5018046;28;20045;-69
2023/06/23 08:09:06;;;;;;;31.95;22.90;;;22.90;99.90;;;;;;5029148;28;20057;-69
2023/06/23 08:11:31;;;;;;;32.80;23.05;;;23.00;99.90;;;;;;5023038;28;20021;-68
2023/06/23 08:13:57;;;;;;;28.00;21.45;;;23.10;99.90;;;;;;5016910;28;20104;-69
2023/06/23 08:16:23;;;;;;;29.60;21.63;;;23.30;99.90;;;;;;5018192;28;20377;-70
2023/06/23 08:18:49;;;;;;;29.65;21.63;;;23.40;99.90;;;;;;5016735;28;20034;-70
2023/06/23 08:21:15;;;;;;;26.77;20.00;;;23.50;99.90;;;;;;5019093;28;20112;-71
2023/06/23 08:23:44;;;;;;;26.75;21.05;;;23.50;99.90;;;;;;5018000;28;20155;-69
2023/06/23 08:26:10;;;;;;;27.10;19.40;;;23.60;99.90;;;;;;5017399;28;20029;-70
2023/06/23 08:28:36;;;;;;;22.08;18.67;;;23.70;99.90;;;;;;5021926;28;20037;-70
2023/06/23 08:31:02;;;;;;;24.92;17.50;;;23.80;99.90;;;;;;5018046;28;20026;-69
2023/06/23 08:33:27;;;;;;;23.23;18.25;;;23.90;99.90;;;;;;5019239;28;20017;-69
2023/06/23 08:35:53;;;;;;;25.38;17.02;;;23.90;99.90;;;;;;5016443;28;20112;-68
2023/06/23 08:38:19;;;;;;;22.23;17.13;;;24.00;99.90;;;;;;5026662;28;20025;-67
2023/06/23 08:40:47;;;;;;;21.63;16.33;;;24.10;99.90;;;;;;5023740;28;20526;-68
2023/06/23 08:43:13;;;;;;;26.88;20.17;;;24.20;99.90;;;;;;5015472;28;20044;-69
2023/06/23 08:45:46;;;;;;;25.33;20.60;;;24.30;99.90;;;;;;5020870;28;20108;-68
2023/06/23 08:48:12;;;;;;;26.48;20.30;;;24.40;99.90;;;;;;5017157;28;20045;-68
2023/06/23 08:50:38;;;;;;;18.00;15.55;;;24.50;99.90;;;;;;5018415;28;20039;-70
2023/06/23 08:53:07;;;;;;;23.35;16.02;;;24.60;99.90;;;;;;5019037;28;20029;-68
2023/06/23 08:55:33;;;;;;;21.13;16.88;;;24.70;99.90;;;;;;5013433;28;20017;-67
2023/06/23 08:58:01;;;;;;;22.27;18.65;;;24.90;99.90;;;;;;5014884;28;20237;-67
2023/06/23 09:00:27;;;;;;;20.80;16.10;;;25.00;99.90;;;;;;5019477;28;20101;-67
2023/06/23 09:02:54;;;;;;;19.10;13.90;;;24.80;99.90;;;;;;5015048;28;20029;-68
2023/06/23 09:05:20;;;;;;;18.92;14.63;;;24.80;99.90;;;;;;5018941;28;20158;-68
2023/06/23 09:07:46;;;;;;;16.13;13.20;;;24.80;99.90;;;;;;5016961;28;20050;-66
2023/06/23 09:10:12;;;;;;;28.17;12.20;;;25.00;99.90;;;;;;5014888;28;20053;-71
2023/06/23 09:13:07;;;;;;;16.95;12.40;;;25.10;99.90;;;;;;5012099;28;20057;-67
2023/06/23 09:15:37;;;;;;;15.93;11.60;;;25.00;99.90;;;;;;5017503;28;20060;-68
2023/06/23 09:18:04;;;;;;;12.38;10.20;;;25.20;99.90;;;;;;5014475;28;20052;-67
2023/06/23 09:20:30;;;;;;;15.32;12.90;;;25.40;99.90;;;;;;5020695;28;20025;-69
2023/06/23 09:22:57;;;;;;;21.00;15.13;;;25.50;99.90;;;;;;5020194;28;20454;-70
2023/06/23 09:25:39;;;;;;;22.13;14.73;;;25.60;99.90;;;;;;5019017;28;20564;-68
2023/06/23 09:28:05;;;;;;;19.33;14.80;;;25.50;99.90;;;;;;5019521;28;20048;-67
2023/06/23 09:30:35;;;;;;;17.88;13.98;;;25.60;99.90;;;;;;5020822;28;20561;-70
2023/06/23 09:33:07;;;;;;;14.50;12.38;;;25.70;99.90;;;;;;5020435;28;20025;-67
2023/06/23 09:35:33;;;;;;;16.88;13.85;;;25.90;99.90;;;;;;5020284;28;20083;-67
2023/06/23 09:38:01;;;;;;;15.50;12.50;;;26.00;99.90;;;;;;5020730;28;20042;-66
2023/06/23 09:40:28;;;;;;;18.13;13.43;;;26.10;99.90;;;;;;5020331;28;20014;-68
2023/06/23 09:43:00;;;;;;;18.50;14.27;;;26.30;99.90;;;;;;5022269;28;20018;-67
2023/06/23 09:45:26;;;;;;;17.48;13.70;;;26.50;99.90;;;;;;5020517;28;20030;-68
2023/06/23 09:47:51;;;;;;;16.48;13.23;;;26.50;99.90;;;;;;5017613;28;20036;-67
2023/06/23 09:50:20;;;;;;;15.65;12.77;;;26.40;99.90;;;;;;5020542;28;20445;-67
2023/06/23 09:52:46;;;;;;;16.50;13.60;;;26.50;99.90;;;;;;5019543;28;20485;-66
2023/06/23 09:55:11;;;;;;;18.33;13.77;;;26.60;99.90;;;;;;5017357;28;20066;-67
2023/06/23 09:57:37;;;;;;;17.33;14.85;;;26.80;99.90;;;;;;5018737;28;20034;-66
2023/06/23 10:00:08;;;;;;;15.63;12.88;;;26.90;99.90;;;;;;5014526;28;20045;-66
2023/06/23 10:02:38;;;;;;;17.83;12.95;;;27.00;99.90;;;;;;5021055;28;20037;-66
2023/06/23 10:05:05;;;;;;;12.52;11.20;;;27.10;99.90;;;;;;5021945;28;20034;-67
2023/06/23 10:07:32;;;;;;;12.02;9.70;;;27.30;99.90;;;;;;5017229;28;20025;-67
2023/06/23 10:10:09;;;;;;;15.00;11.68;;;27.30;99.90;;;;;;5019966;28;20030;-66
2023/06/23 10:12:39;;;;;;;12.27;10.98;;;27.30;99.90;;;;;;5023654;28;20034;-68
2023/06/23 10:15:06;;;;;;;13.15;10.18;;;27.30;99.90;;;;;;5024926;28;20177;-68
2023/06/23 10:17:32;;;;;;;11.32;9.68;;;27.30;99.90;;;;;;5019648;28;20161;-67
2023/06/23 10:19:58;;;;;;;10.60;9.60;;;27.40;99.90;;;;;;5023866;28;20025;-67
2023/06/23 10:22:25;;;;;;;12.45;9.73;;;27.50;99.90;;;;;;5026210;28;20029;-67
2023/06/23 10:24:52;;;;;;;12.65;10.43;;;27.50;99.90;;;;;;5017818;28;20018;-68
2023/06/23 10:27:26;;;;;;;15.88;12.65;;;27.60;99.90;;;;;;5019885;28;20037;-67
2023/06/23 10:29:54;;;;;;;17.90;13.80;;;27.90;99.90;;;;;;5020396;28;20036;-67
2023/06/23 10:32:30;;;;;;;16.65;13.23;;;27.90;99.90;;;;;;5018658;28;20101;-68
2023/06/23 10:35:06;;;;;;;14.45;12.05;;;27.90;99.90;;;;;;5019910;28;20141;-67
2023/06/23 10:37:32;;;;;;;16.48;11.75;;;28.00;99.90;;;;;;5018961;28;20056;-66
2023/06/23 10:40:03;;;;;;;13.48;9.98;;;28.00;99.90;;;;;;5021559;28;20474;-67
2023/06/23 10:42:31;;;;;;;9.82;8.43;;;27.90;99.90;;;;;;5016614;28;20566;-68
2023/06/23 10:44:58;;;;;;;8.43;7.40;;;28.00;99.90;;;;;;5021658;28;20059;-67
2023/06/23 10:47:24;;;;;;;10.32;9.30;;;28.20;99.90;;;;;;5019914;28;20033;-69
2023/06/23 10:49:51;;;;;;;11.27;9.15;;;28.20;99.90;;;;;;5019286;28;20034;-68
2023/06/23 10:52:17;;;;;;;9.00;8.07;;;28.20;99.90;;;;;;5020452;28;20026;-67
2023/06/23 10:54:43;;;;;;;19.88;11.05;;;28.20;99.90;;;;;;5021487;28;20032;-67
2023/06/23 10:57:13;;;;;;;11.90;10.60;;;28.00;99.90;;;;;;5027692;28;20017;-68
2023/06/23 10:59:59;;;;;;;12.35;10.80;;;27.90;99.90;;;;;;5016893;28;20370;-67
2023/06/23 11:02:25;;;;;;;13.02;10.07;;;28.00;99.90;;;;;;5018607;28;20377;-70
2023/06/23 11:05:15;;;;;;;12.57;10.82;;;28.30;99.90;;;;;;5019884;28;20033;-68
2023/06/23 11:08:03;;;;;;;12.68;9.80;;;28.40;99.90;;;;;;5023483;28;20059;-67
2023/06/23 11:10:55;;;;;;;10.55;9.40;;;28.50;99.90;;;;;;5019936;28;20033;-67
2023/06/23 11:13:35;;;;;;;16.80;10.02;;;28.60;99.90;;;;;;5018590;28;20034;-67
2023/06/23 11:16:02;;;;;;;10.90;8.82;;;28.50;99.90;;;;;;5018298;28;20029;-69
2023/06/23 11:18:28;;;;;;;8.65;7.57;;;28.60;99.90;;;;;;5016910;28;20397;-67
2023/06/23 11:21:00;;;;;;;9.02;7.93;;;28.60;99.90;;;;;;5018527;28;20493;-67
2023/06/23 11:23:25;;;;;;;10.52;8.52;;;28.70;99.90;;;;;;5022727;28;20113;-67
2023/06/23 11:25:53;;;;;;;8.52;7.72;;;28.80;99.90;;;;;;5025781;28;20116;-67
2023/06/23 11:28:35;;;;;;;10.70;8.20;;;28.70;99.90;;;;;;5017243;28;20034;-67
2023/06/23 11:31:08;;;;;;;10.13;8.02;;;28.80;99.90;;;;;;5026301;28;20033;-69
2023/06/23 11:34:03;;;;;;;7.50;6.80;;;29.00;99.90;;;;;;5016028;28;20513;-66
2023/06/23 11:36:31;;;;;;;7.65;5.68;;;29.20;99.90;;;;;;5007896;28;20033;-68
2023/06/23 11:38:57;;;;;;;7.13;6.40;;;29.30;99.90;;;;;;5020784;28;20026;-68
2023/06/23 11:41:32;;;;;;;9.80;7.55;;;29.50;99.90;;;;;;5032819;27;20021;-68
2023/06/23 11:43:59;;;;;;;8.65;6.90;;;29.70;99.90;;;;;;5031988;27;20030;-69
2023/06/23 11:46:25;;;;;;;6.35;4.97;;;29.70;99.90;;;;;;5019049;28;20029;-69
2023/06/23 11:48:51;;;;;;;6.32;5.40;;;29.80;99.90;;;;;;5014770;28;20064;-68
2023/06/23 11:51:18;;;;;;;6.90;6.25;;;29.80;99.90;;;;;;5015905;28;20666;-70
2023/06/23 11:53:50;;;;;;;8.70;7.20;;;29.80;99.90;;;;;;5023167;28;20036;-70
2023/06/23 11:56:17;;;;;;;7.85;7.05;;;29.80;99.90;;;;;;5023504;28;20097;-70
2023/06/23 11:58:55;;;;;;;9.43;7.75;;;29.50;99.90;;;;;;5018096;28;20367;-69
2023/06/23 12:01:22;;;;;;;9.65;7.68;;;29.20;99.90;;;;;;5021911;28;20377;-68
2023/06/23 12:03:49;;;;;;;7.72;6.88;;;29.20;99.90;;;;;;5027013;28;20029;-69
2023/06/23 12:06:17;;;;;;;8.77;7.35;;;29.30;99.90;;;;;;5013567;28;20029;-70
2023/06/23 12:08:50;;;;;;;8.35;7.30;;;29.30;99.90;;;;;;5020191;28;20049;-70
2023/06/23 12:11:21;;;;;;;9.45;6.80;;;29.20;99.90;;;;;;5018567;28;20052;-69
2023/06/23 12:13:48;;;;;;;7.47;6.00;;;29.20;99.90;;;;;;5019819;28;20073;-69
2023/06/23 12:16:14;;;;;;;6.80;5.68;;;29.20;99.90;;;;;;5022088;28;20120;-68
2023/06/23 12:18:50;;;;;;;6.40;5.30;;;29.40;99.90;;;;;;5017731;28;20029;-69
2023/06/23 12:21:18;;;;;;;9.02;6.90;;;29.40;99.90;;;;;;5020159;28;20037;-69
2023/06/23 12:23:44;;;;;;;7.75;6.20;;;29.20;99.90;;;;;;5017765;28;20068;-68
2023/06/23 12:26:09;;;;;;;7.55;5.72;;;29.20;99.90;;;;;;5022307;28;20045;-69
2023/06/23 12:28:35;;;;;;;7.43;5.80;;;29.30;99.90;;;;;;5021727;28;20546;-67
2023/06/23 12:31:03;;;;;;;7.80;5.05;;;29.40;99.90;;;;;;5015550;28;20022;-67
2023/06/23 12:33:29;;;;;;;5.95;4.68;;;29.40;99.90;;;;;;5020634;28;20477;-69
2023/06/23 12:36:03;;;;;;;6.10;5.40;;;29.00;99.90;;;;;;5015596;28;20034;-69
2023/06/23 12:38:31;;;;;;;6.50;5.82;;;29.10;99.90;;;;;;5019988;28;20033;-71
2023/06/23 12:41:19;;;;;;;9.98;6.63;;;29.30;99.90;;;;;;5025545;28;20106;-68